Crumrod, Arkansas
Current Conditions -  °F | °C
As of 2:15 AM on Monday 26 Jan 2015 (Local Time) from KCKM Reporting Station
Overcast Overcast  
Wind Chill: 33°   Ceiling: 2800
Heat Index: 41°   Visibility: 10mi
Dew Point: 36°   Wind: 15mph
Humidity: 81%   Direction: 320°NW
Pressure: 30.04"   Gusts: NA
Location:  34.15°N, 90.98°W
Report Text: KCKM 260815Z AUTO 32013KT 10SM OVC028 05/02 A3004 RMK AO1
Loading
Personal Weather Stations






























Interactive Weather Map New forecast layout! Learn more

10-Day Weather Forecast

Advertisements
Track Severe Weather on mobile